sensor_id;sensor_type;location;lat;lon;timestamp;pressure;altitude;pressure_sealevel;temperature;humidity
60061;BME280;45933;51.336;12.612;2022-07-29T00:02:24;100051.25;;;20.80;35.54
60061;BME280;45933;51.336;12.612;2022-07-29T00:04:49;100051.25;;;20.80;35.45
60061;BME280;45933;51.336;12.612;2022-07-29T00:07:14;100043.28;;;20.80;35.41
60061;BME280;45933;51.336;12.612;2022-07-29T00:09:40;100043.38;;;20.78;35.63
60061;BME280;45933;51.336;12.612;2022-07-29T00:12:05;100048.66;;;20.78;35.47
60061;BME280;45933;51.336;12.612;2022-07-29T00:14:31;100050.47;;;20.78;35.62
60061;BME280;45933;51.336;12.612;2022-07-29T00:16:56;100047.94;;;20.75;36.01
60061;BME280;45933;51.336;12.612;2022-07-29T00:19:22;100050.59;;;20.75;35.63
60061;BME280;45933;51.336;12.612;2022-07-29T00:21:47;100047.19;;;20.73;35.85
60061;BME280;45933;51.336;12.612;2022-07-29T00:24:12;100042.78;;;20.72;35.85
60061;BME280;45933;51.336;12.612;2022-07-29T00:26:38;100027.91;;;20.69;36.15
60061;BME280;45933;51.336;12.612;2022-07-29T00:29:04;100022.75;;;20.66;35.80
60061;BME280;45933;51.336;12.612;2022-07-29T00:31:29;100020.97;;;20.67;35.72
60061;BME280;45933;51.336;12.612;2022-07-29T00:33:55;100021.22;;;20.62;35.97
60061;BME280;45933;51.336;12.612;2022-07-29T00:36:21;100008.97;;;20.59;36.33
60061;BME280;45933;51.336;12.612;2022-07-29T00:38:50;100006.22;;;20.61;36.11
60061;BME280;45933;51.336;12.612;2022-07-29T00:41:17;99996.78;;;20.55;36.14
60061;BME280;45933;51.336;12.612;2022-07-29T00:43:43;99991.56;;;20.54;36.03
60061;BME280;45933;51.336;12.612;2022-07-29T00:46:08;99992.66;;;20.50;36.25
60061;BME280;45933;51.336;12.612;2022-07-29T00:48:34;99984.88;;;20.47;36.23
60061;BME280;45933;51.336;12.612;2022-07-29T00:51:02;99992.91;;;20.44;36.79
60061;BME280;45933;51.336;12.612;2022-07-29T00:53:28;99985.19;;;20.39;36.46
60061;BME280;45933;51.336;12.612;2022-07-29T00:55:54;99979.13;;;20.37;36.60
60061;BME280;45933;51.336;12.612;2022-07-29T00:58:21;99986.34;;;20.33;36.86
60061;BME280;45933;51.336;12.612;2022-07-29T01:00:46;99973.25;;;20.30;36.94
60061;BME280;45933;51.336;12.612;2022-07-29T01:03:12;99970.75;;;20.27;36.87
60061;BME280;45933;51.336;12.612;2022-07-29T01:05:38;99978.78;;;20.26;37.14
60061;BME280;45933;51.336;12.612;2022-07-29T01:08:06;99971.81;;;20.23;37.15
60061;BME280;45933;51.336;12.612;2022-07-29T01:10:31;99974.47;;;20.23;37.12
60061;BME280;45933;51.336;12.612;2022-07-29T01:12:58;99979.06;;;20.20;37.31
60061;BME280;45933;51.336;12.612;2022-07-29T01:15:24;99971.13;;;20.20;37.33
60061;BME280;45933;51.336;12.612;2022-07-29T01:21:01;99973.47;;;20.26;36.74
60061;BME280;45933;51.336;12.612;2022-07-29T01:29:24;99969.97;;;20.25;36.60
60061;BME280;45933;51.336;12.612;2022-07-29T01:32:07;99968.47;;;20.20;36.69
60061;BME280;45933;51.336;12.612;2022-07-29T01:40:28;99962.97;;;20.05;37.48
60061;BME280;45933;51.336;12.612;2022-07-29T01:42:57;99962.31;;;20.00;38.01
60061;BME280;45933;51.336;12.612;2022-07-29T01:45:28;99960.59;;;19.99;38.02
60061;BME280;45933;51.336;12.612;2022-07-29T01:51:20;99965.91;;;19.99;37.98
60061;BME280;45933;51.336;12.612;2022-07-29T01:53:50;99969.53;;;19.97;37.99
60061;BME280;45933;51.336;12.612;2022-07-29T01:56:19;99963.75;;;19.89;38.28
60061;BME280;45933;51.336;12.612;2022-07-29T01:58:47;99975.22;;;19.88;38.76
60061;BME280;45933;51.336;12.612;2022-07-29T02:01:14;99960.44;;;19.83;38.34
60061;BME280;45933;51.336;12.612;2022-07-29T02:03:43;99964.72;;;19.86;38.62
60061;BME280;45933;51.336;12.612;2022-07-29T02:06:11;99955.16;;;19.83;38.82
60061;BME280;45933;51.336;12.612;2022-07-29T02:08:39;99954.50;;;19.78;38.71
60061;BME280;45933;51.336;12.612;2022-07-29T02:11:05;99959.81;;;19.78;38.91
60061;BME280;45933;51.336;12.612;2022-07-29T02:13:34;99952.06;;;19.74;39.11
60061;BME280;45933;51.336;12.612;2022-07-29T02:16:02;99947.75;;;19.71;38.90
60061;BME280;45933;51.336;12.612;2022-07-29T02:18:30;99945.31;;;19.67;38.97
60061;BME280;45933;51.336;12.612;2022-07-29T02:20:58;99946.22;;;19.67;39.08
60061;BME280;45933;51.336;12.612;2022-07-29T02:23:24;99947.25;;;19.63;39.43
60061;BME280;45933;51.336;12.612;2022-07-29T02:25:53;99941.97;;;19.63;39.20
60061;BME280;45933;51.336;12.612;2022-07-29T02:28:22;99941.13;;;19.63;39.15
60061;BME280;45933;51.336;12.612;2022-07-29T02:30:51;99950.03;;;19.60;39.29
60061;BME280;45933;51.336;12.612;2022-07-29T02:33:18;99946.59;;;19.58;39.22
60061;BME280;45933;51.336;12.612;2022-07-29T02:35:46;99943.94;;;19.58;39.21
60061;BME280;45933;51.336;12.612;2022-07-29T02:38:14;99942.22;;;19.57;39.28
60061;BME280;45933;51.336;12.612;2022-07-29T02:41:00;99940.44;;;19.57;39.48
60061;BME280;45933;51.336;12.612;2022-07-29T02:43:27;99948.50;;;19.54;39.27
60061;BME280;45933;51.336;12.612;2022-07-29T02:45:54;99938.72;;;19.56;39.27
60061;BME280;45933;51.336;12.612;2022-07-29T02:48:26;99935.19;;;19.56;39.41
60061;BME280;45933;51.336;12.612;2022-07-29T02:51:00;99937.75;;;19.59;39.14
60061;BME280;45933;51.336;12.612;2022-07-29T02:53:26;99938.84;;;19.53;39.71
60061;BME280;45933;51.336;12.612;2022-07-29T02:55:59;99940.56;;;19.54;39.52
60061;BME280;45933;51.336;12.612;2022-07-29T02:58:29;99931.78;;;19.54;39.39
60061;BME280;45933;51.336;12.612;2022-07-29T03:00:58;99935.44;;;19.51;39.47
60061;BME280;45933;51.336;12.612;2022-07-29T03:03:28;99933.56;;;19.53;39.49
60061;BME280;45933;51.336;12.612;2022-07-29T03:05:56;99930.13;;;19.51;39.30
60061;BME280;45933;51.336;12.612;2022-07-29T03:08:22;99931.91;;;19.51;39.56
60061;BME280;45933;51.336;12.612;2022-07-29T03:10:48;99932.91;;;19.48;39.66
60061;BME280;45933;51.336;12.612;2022-07-29T03:13:15;99931.19;;;19.47;39.72
60061;BME280;45933;51.336;12.612;2022-07-29T03:15:45;99935.47;;;19.50;39.48
60061;BME280;45933;51.336;12.612;2022-07-29T03:18:11;99926.03;;;19.44;39.50
60061;BME280;45933;51.336;12.612;2022-07-29T03:20:38;99937.41;;;19.46;39.77
60061;BME280;45933;51.336;12.612;2022-07-29T03:23:03;99928.69;;;19.44;39.70
60061;BME280;45933;51.336;12.612;2022-07-29T03:25:29;99936.59;;;19.44;39.62
60061;BME280;45933;51.336;12.612;2022-07-29T03:27:55;99935.75;;;19.44;39.52
60061;BME280;45933;51.336;12.612;2022-07-29T03:30:21;99942.06;;;19.41;39.97
60061;BME280;45933;51.336;12.612;2022-07-29T03:32:48;99938.59;;;19.39;39.79
60061;BME280;45933;51.336;12.612;2022-07-29T03:35:14;99935.94;;;19.39;40.01
60061;BME280;45933;51.336;12.612;2022-07-29T03:37:42;99932.53;;;19.37;39.80
60061;BME280;45933;51.336;12.612;2022-07-29T03:40:08;99932.59;;;19.36;39.79
60061;BME280;45933;51.336;12.612;2022-07-29T03:42:37;99929.16;;;19.33;39.97
60061;BME280;45933;51.336;12.612;2022-07-29T03:45:07;99929.97;;;19.36;39.89
60061;BME280;45933;51.336;12.612;2022-07-29T03:47:34;99936.16;;;19.34;39.87
60061;BME280;45933;51.336;12.612;2022-07-29T03:50:05;99930.88;;;19.34;40.29
60061;BME280;45933;51.336;12.612;2022-07-29T03:52:31;99928.44;;;19.30;40.33
60061;BME280;45933;51.336;12.612;2022-07-29T03:54:57;99929.34;;;19.29;40.59
60061;BME280;45933;51.336;12.612;2022-07-29T03:57:24;99934.59;;;19.30;40.40
60061;BME280;45933;51.336;12.612;2022-07-29T03:59:52;99937.28;;;19.29;40.64
60061;BME280;45933;51.336;12.612;2022-07-29T04:02:17;99938.28;;;19.26;40.34
60061;BME280;45933;51.336;12.612;2022-07-29T04:04:43;99941.97;;;19.22;40.89
60061;BME280;45933;51.336;12.612;2022-07-29T04:07:12;99941.78;;;19.27;40.63
60061;BME280;45933;51.336;12.612;2022-07-29T04:09:38;99942.84;;;19.23;40.38
60061;BME280;45933;51.336;12.612;2022-07-29T04:12:03;99939.41;;;19.21;41.31
60061;BME280;45933;51.336;12.612;2022-07-29T04:14:30;99937.81;;;19.17;41.35
60061;BME280;45933;51.336;12.612;2022-07-29T04:16:56;99941.31;;;19.17;41.11
60061;BME280;45933;51.336;12.612;2022-07-29T04:19:21;99935.97;;;19.19;41.08
60061;BME280;45933;51.336;12.612;2022-07-29T04:21:46;99935.06;;;19.20;41.21
60061;BME280;45933;51.336;12.612;2022-07-29T04:24:12;99930.63;;;19.20;40.71
60061;BME280;45933;51.336;12.612;2022-07-29T04:26:37;99940.47;;;19.17;41.48
60061;BME280;45933;51.336;12.612;2022-07-29T04:29:03;99943.00;;;19.20;41.23
60061;BME280;45933;51.336;12.612;2022-07-29T04:31:28;99949.06;;;19.22;41.21
60061;BME280;45933;51.336;12.612;2022-07-29T04:33:54;99944.53;;;19.24;41.05
60061;BME280;45933;51.336;12.612;2022-07-29T04:36:19;99952.28;;;19.28;40.73
60061;BME280;45933;51.336;12.612;2022-07-29T04:38:44;99951.41;;;19.28;41.53
60061;BME280;45933;51.336;12.612;2022-07-29T04:41:10;99951.31;;;19.31;41.39
60061;BME280;45933;51.336;12.612;2022-07-29T04:43:35;99953.94;;;19.31;41.46
60061;BME280;45933;51.336;12.612;2022-07-29T04:46:06;99953.66;;;19.37;41.46
60061;BME280;45933;51.336;12.612;2022-07-29T04:48:31;99954.59;;;19.36;41.66
60061;BME280;45933;51.336;12.612;2022-07-29T04:50:57;99953.53;;;19.40;42.14
60061;BME280;45933;51.336;12.612;2022-07-29T04:53:22;99957.75;;;19.44;41.09
60061;BME280;45933;51.336;12.612;2022-07-29T04:55:48;99953.28;;;19.46;41.51
60061;BME280;45933;51.336;12.612;2022-07-29T04:58:13;99960.19;;;19.49;40.91
60061;BME280;45933;51.336;12.612;2022-07-29T05:00:39;99960.94;;;19.52;40.89
60061;BME280;45933;51.336;12.612;2022-07-29T05:03:05;99964.34;;;19.54;40.89
60061;BME280;45933;51.336;12.612;2022-07-29T05:05:31;99960.72;;;19.57;40.79
60061;BME280;45933;51.336;12.612;2022-07-29T05:07:56;99948.31;;;19.59;40.87
60061;BME280;45933;51.336;12.612;2022-07-29T05:10:22;99947.34;;;19.62;40.76
60061;BME280;45933;51.336;12.612;2022-07-29T05:12:47;99951.63;;;19.64;40.76
60061;BME280;45933;51.336;12.612;2022-07-29T05:15:13;99951.53;;;19.66;40.81
60061;BME280;45933;51.336;12.612;2022-07-29T05:17:39;99953.97;;;19.70;40.75
60061;BME280;45933;51.336;12.612;2022-07-29T05:20:05;99954.72;;;19.74;41.12
60061;BME280;45933;51.336;12.612;2022-07-29T05:22:31;99952.84;;;19.76;40.76
60061;BME280;45933;51.336;12.612;2022-07-29T05:24:56;99947.34;;;19.80;40.66
60061;BME280;45933;51.336;12.612;2022-07-29T05:27:22;99956.88;;;19.84;41.19
60061;BME280;45933;51.336;12.612;2022-07-29T05:29:47;99956.59;;;19.91;40.79
60061;BME280;45933;51.336;12.612;2022-07-29T05:32:13;99948.44;;;19.95;40.67
60061;BME280;45933;51.336;12.612;2022-07-29T05:34:39;99949.09;;;20.00;41.02
60061;BME280;45933;51.336;12.612;2022-07-29T05:37:04;99946.06;;;20.08;40.46
60061;BME280;45933;51.336;12.612;2022-07-29T05:39:30;99951.06;;;20.14;40.87
60061;BME280;45933;51.336;12.612;2022-07-29T05:41:55;99951.59;;;20.22;39.96
60061;BME280;45933;51.336;12.612;2022-07-29T05:44:21;99953.78;;;20.31;40.03
60061;BME280;45933;51.336;12.612;2022-07-29T05:46:46;99948.94;;;20.41;39.93
60061;BME280;45933;51.336;12.612;2022-07-29T05:49:11;99953.78;;;20.50;40.04
60061;BME280;45933;51.336;12.612;2022-07-29T05:51:37;99949.06;;;20.57;40.11
60061;BME280;45933;51.336;12.612;2022-07-29T05:54:02;99947.81;;;20.64;39.78
60061;BME280;45933;51.336;12.612;2022-07-29T05:56:27;99944.78;;;20.72;39.47
60061;BME280;45933;51.336;12.612;2022-07-29T05:58:53;99942.75;;;20.77;39.78
60061;BME280;45933;51.336;12.612;2022-07-29T06:01:18;99946.91;;;20.82;39.30
60061;BME280;45933;51.336;12.612;2022-07-29T06:03:44;99946.69;;;20.87;38.76
60061;BME280;45933;51.336;12.612;2022-07-29T06:06:09;99947.31;;;20.92;39.10
60061;BME280;45933;51.336;12.612;2022-07-29T06:08:35;99943.56;;;20.96;39.29
60061;BME280;45933;51.336;12.612;2022-07-29T06:11:02;99948.63;;;21.01;38.66
60061;BME280;45933;51.336;12.612;2022-07-29T06:13:28;99952.84;;;21.05;38.86
60061;BME280;45933;51.336;12.612;2022-07-29T06:15:53;99949.09;;;21.09;38.81
60061;BME280;45933;51.336;12.612;2022-07-29T06:18:18;99941.84;;;21.12;38.72
60061;BME280;45933;51.336;12.612;2022-07-29T06:20:46;99951.47;;;21.15;38.51
60061;BME280;45933;51.336;12.612;2022-07-29T06:23:11;99946.84;;;21.19;38.78
60061;BME280;45933;51.336;12.612;2022-07-29T06:25:37;99944.81;;;21.24;38.43
60061;BME280;45933;51.336;12.612;2022-07-29T06:28:03;99942.16;;;21.24;38.08
60061;BME280;45933;51.336;12.612;2022-07-29T06:30:29;99944.56;;;21.28;38.08
60061;BME280;45933;51.336;12.612;2022-07-29T06:32:54;99944.38;;;21.33;37.97
60061;BME280;45933;51.336;12.612;2022-07-29T06:35:20;99946.69;;;21.39;38.03
60061;BME280;45933;51.336;12.612;2022-07-29T06:37:45;99938.41;;;21.45;38.29
60061;BME280;45933;51.336;12.612;2022-07-29T06:40:11;99944.34;;;21.50;38.23
60061;BME280;45933;51.336;12.612;2022-07-29T06:42:55;99942.16;;;21.58;38.10
60061;BME280;45933;51.336;12.612;2022-07-29T06:45:21;99941.81;;;21.64;38.16
60061;BME280;45933;51.336;12.612;2022-07-29T06:47:46;99947.72;;;21.70;37.88
60061;BME280;45933;51.336;12.612;2022-07-29T06:50:11;99937.72;;;21.75;38.40
60061;BME280;45933;51.336;12.612;2022-07-29T06:52:38;99946.31;;;21.80;37.61
60061;BME280;45933;51.336;12.612;2022-07-29T06:55:04;99938.75;;;21.88;37.75
60061;BME280;45933;51.336;12.612;2022-07-29T06:57:30;99942.91;;;21.93;37.86
60061;BME280;45933;51.336;12.612;2022-07-29T06:59:58;99953.00;;;22.03;37.50
60061;BME280;45933;51.336;12.612;2022-07-29T07:02:23;99947.44;;;22.07;37.75
60061;BME280;45933;51.336;12.612;2022-07-29T07:04:49;99947.97;;;22.14;37.32
60061;BME280;45933;51.336;12.612;2022-07-29T07:07:14;99953.88;;;22.19;37.57
60061;BME280;45933;51.336;12.612;2022-07-29T07:09:40;99948.34;;;22.24;37.35
60061;BME280;45933;51.336;12.612;2022-07-29T07:12:05;99953.38;;;22.28;37.26
60061;BME280;45933;51.336;12.612;2022-07-29T07:14:31;99952.19;;;22.34;37.42
60061;BME280;45933;51.336;12.612;2022-07-29T07:16:56;99941.22;;;22.40;37.46
60061;BME280;45933;51.336;12.612;2022-07-29T07:19:22;99940.19;;;22.42;37.28
60061;BME280;45933;51.336;12.612;2022-07-29T07:21:47;99940.59;;;22.51;37.24
60061;BME280;45933;51.336;12.612;2022-07-29T07:24:13;99942.06;;;22.56;36.46
60061;BME280;45933;51.336;12.612;2022-07-29T07:26:38;99942.63;;;22.61;36.97
60061;BME280;45933;51.336;12.612;2022-07-29T07:29:05;99940.16;;;22.74;36.49
60061;BME280;45933;51.336;12.612;2022-07-29T07:31:30;99937.28;;;22.77;36.59
60061;BME280;45933;51.336;12.612;2022-07-29T07:33:55;99940.91;;;22.92;36.70
60061;BME280;45933;51.336;12.612;2022-07-29T07:36:21;99944.63;;;23.04;37.56
60061;BME280;45933;51.336;12.612;2022-07-29T07:38:47;99935.00;;;23.17;36.27
60061;BME280;45933;51.336;12.612;2022-07-29T07:41:12;99943.06;;;23.30;36.24
60061;BME280;45933;51.336;12.612;2022-07-29T07:43:38;99937.09;;;23.40;35.90
60061;BME280;45933;51.336;12.612;2022-07-29T07:46:04;99941.88;;;23.49;35.80
60061;BME280;45933;51.336;12.612;2022-07-29T07:48:29;99939.69;;;23.56;35.50
60061;BME280;45933;51.336;12.612;2022-07-29T07:50:54;99942.50;;;23.69;35.83
60061;BME280;45933;51.336;12.612;2022-07-29T07:53:20;99938.31;;;23.79;35.83
60061;BME280;45933;51.336;12.612;2022-07-29T07:55:45;99939.44;;;23.89;35.64
60061;BME280;45933;51.336;12.612;2022-07-29T07:58:11;99941.59;;;23.97;34.92
60061;BME280;45933;51.336;12.612;2022-07-29T08:00:36;99940.34;;;24.17;35.73
60061;BME280;45933;51.336;12.612;2022-07-29T08:03:02;99933.38;;;24.29;35.02
60061;BME280;45933;51.336;12.612;2022-07-29T08:05:28;99932.28;;;24.45;34.91
60061;BME280;45933;51.336;12.612;2022-07-29T08:07:53;99937.78;;;24.57;33.81
60061;BME280;45933;51.336;12.612;2022-07-29T08:10:19;99934.19;;;24.70;33.73
60061;BME280;45933;51.336;12.612;2022-07-29T08:13:08;99935.75;;;24.87;33.87
60061;BME280;45933;51.336;12.612;2022-07-29T08:15:34;99933.00;;;25.01;33.67
60061;BME280;45933;51.336;12.612;2022-07-29T08:17:59;99936.25;;;25.19;33.62
60061;BME280;45933;51.336;12.612;2022-07-29T08:20:25;99934.22;;;25.36;33.68
60061;BME280;45933;51.336;12.612;2022-07-29T08:22:51;99931.03;;;25.56;33.02
60061;BME280;45933;51.336;12.612;2022-07-29T08:25:17;99927.66;;;25.79;32.80
60061;BME280;45933;51.336;12.612;2022-07-29T08:27:45;99928.13;;;25.97;33.57
60061;BME280;45933;51.336;12.612;2022-07-29T08:30:11;99929.25;;;26.19;31.92
60061;BME280;45933;51.336;12.612;2022-07-29T08:32:36;99922.56;;;26.37;32.47
60061;BME280;45933;51.336;12.612;2022-07-29T08:35:02;99927.66;;;26.53;31.98
60061;BME280;45933;51.336;12.612;2022-07-29T08:37:27;99926.06;;;26.74;32.27
60061;BME280;45933;51.336;12.612;2022-07-29T08:39:52;99923.47;;;26.97;32.10
60061;BME280;45933;51.336;12.612;2022-07-29T08:42:18;99921.63;;;27.21;31.08
60061;BME280;45933;51.336;12.612;2022-07-29T08:44:43;99915.69;;;27.40;30.57
60061;BME280;45933;51.336;12.612;2022-07-29T08:47:10;99917.66;;;27.60;29.51
60061;BME280;45933;51.336;12.612;2022-07-29T08:49:39;99916.69;;;27.84;29.62
60061;BME280;45933;51.336;12.612;2022-07-29T08:52:05;99921.28;;;28.04;29.49
60061;BME280;45933;51.336;12.612;2022-07-29T08:54:30;99916.88;;;28.26;28.91
60061;BME280;45933;51.336;12.612;2022-07-29T08:56:57;99916.72;;;28.50;28.23
60061;BME280;45933;51.336;12.612;2022-07-29T08:59:25;99910.69;;;28.69;28.56
60061;BME280;45933;51.336;12.612;2022-07-29T09:01:52;99908.59;;;28.93;29.27
60061;BME280;45933;51.336;12.612;2022-07-29T09:04:19;99906.69;;;29.16;27.66
60061;BME280;45933;51.336;12.612;2022-07-29T09:06:48;99906.66;;;29.37;28.02
60061;BME280;45933;51.336;12.612;2022-07-29T09:09:15;99904.25;;;29.55;27.15
60061;BME280;45933;51.336;12.612;2022-07-29T09:11:41;99902.50;;;29.75;26.91
60061;BME280;45933;51.336;12.612;2022-07-29T09:14:07;99901.44;;;29.97;26.13
60061;BME280;45933;51.336;12.612;2022-07-29T09:16:53;99894.41;;;30.15;26.44
60061;BME280;45933;51.336;12.612;2022-07-29T09:19:27;99903.94;;;30.29;25.68
60061;BME280;45933;51.336;12.612;2022-07-29T09:21:54;99893.88;;;30.31;25.42
60061;BME280;45933;51.336;12.612;2022-07-29T09:24:23;99890.38;;;30.50;25.23
60061;BME280;45933;51.336;12.612;2022-07-29T09:26:48;99889.94;;;30.54;25.67
60061;BME280;45933;51.336;12.612;2022-07-29T09:29:15;99888.81;;;30.66;25.02
60061;BME280;45933;51.336;12.612;2022-07-29T09:31:46;99887.84;;;30.77;25.61
60061;BME280;45933;51.336;12.612;2022-07-29T09:34:14;99887.69;;;30.98;25.99
60061;BME280;45933;51.336;12.612;2022-07-29T09:36:44;99888.66;;;31.16;25.04
60061;BME280;45933;51.336;12.612;2022-07-29T09:39:10;99891.03;;;31.19;25.47
60061;BME280;45933;51.336;12.612;2022-07-29T09:41:49;99890.03;;;31.40;24.71
60061;BME280;45933;51.336;12.612;2022-07-29T09:44:15;99886.47;;;31.49;23.85
60061;BME280;45933;51.336;12.612;2022-07-29T09:46:55;99878.47;;;31.57;23.77
60061;BME280;45933;51.336;12.612;2022-07-29T09:49:21;99887.69;;;31.64;23.66
60061;BME280;45933;51.336;12.612;2022-07-29T09:51:47;99886.50;;;31.67;24.09
60061;BME280;45933;51.336;12.612;2022-07-29T09:54:26;99888.47;;;31.74;24.15
60061;BME280;45933;51.336;12.612;2022-07-29T09:56:53;99887.75;;;31.72;23.94
60061;BME280;45933;51.336;12.612;2022-07-29T09:59:19;99887.91;;;31.71;23.95
60061;BME280;45933;51.336;12.612;2022-07-29T10:01:48;99882.38;;;31.82;23.38
60061;BME280;45933;51.336;12.612;2022-07-29T10:04:15;99880.63;;;31.91;23.67
60061;BME280;45933;51.336;12.612;2022-07-29T10:07:01;99881.72;;;32.16;24.16
60061;BME280;45933;51.336;12.612;2022-07-29T10:09:27;99865.88;;;32.31;23.53
60061;BME280;45933;51.336;12.612;2022-07-29T10:12:07;99868.28;;;32.51;23.55
60061;BME280;45933;51.336;12.612;2022-07-29T10:14:33;99866.38;;;32.62;22.66
60061;BME280;45933;51.336;12.612;2022-07-29T10:17:00;99860.63;;;32.83;21.99
60061;BME280;45933;51.336;12.612;2022-07-29T10:19:28;99854.00;;;32.95;22.33
60061;BME280;45933;51.336;12.612;2022-07-29T10:21:54;99861.91;;;33.14;22.56
60061;BME280;45933;51.336;12.612;2022-07-29T10:24:20;99860.38;;;33.12;21.53
60061;BME280;45933;51.336;12.612;2022-07-29T10:26:46;99860.97;;;33.31;22.50
60061;BME280;45933;51.336;12.612;2022-07-29T10:29:13;99855.34;;;33.43;21.81
60061;BME280;45933;51.336;12.612;2022-07-29T10:31:53;99858.75;;;33.53;21.45
60061;BME280;45933;51.336;12.612;2022-07-29T10:35:22;99854.25;;;33.62;20.95
60061;BME280;45933;51.336;12.612;2022-07-29T10:37:37;99847.34;;;33.67;21.71
60061;BME280;45933;51.336;12.612;2022-07-29T10:40:27;99856.34;;;33.76;20.78
60061;BME280;45933;51.336;12.612;2022-07-29T10:43:26;99842.19;;;33.90;21.07
60061;BME280;45933;51.336;12.612;2022-07-29T10:45:58;99844.28;;;34.04;21.67
60061;BME280;45933;51.336;12.612;2022-07-29T10:48:25;99838.41;;;34.17;20.64
60061;BME280;45933;51.336;12.612;2022-07-29T10:50:59;99837.75;;;34.23;20.95
60061;BME280;45933;51.336;12.612;2022-07-29T10:53:48;99834.19;;;34.31;20.25
60061;BME280;45933;51.336;12.612;2022-07-29T10:56:28;99829.66;;;34.48;21.13
60061;BME280;45933;51.336;12.612;2022-07-29T11:01:57;99825.13;;;34.65;19.41
60061;BME280;45933;51.336;12.612;2022-07-29T11:07:10;99819.69;;;34.81;20.09
60061;BME280;45933;51.336;12.612;2022-07-29T11:09:37;99826.28;;;34.87;20.90
60061;BME280;45933;51.336;12.612;2022-07-29T11:12:03;99829.13;;;35.01;20.36
60061;BME280;45933;51.336;12.612;2022-07-29T11:14:57;99825.06;;;35.14;20.36
60061;BME280;45933;51.336;12.612;2022-07-29T11:17:24;99823.19;;;35.14;19.51
60061;BME280;45933;51.336;12.612;2022-07-29T11:19:50;99825.22;;;35.20;19.13
60061;BME280;45933;51.336;12.612;2022-07-29T11:22:34;99815.53;;;35.34;19.86
60061;BME280;45933;51.336;12.612;2022-07-29T11:25:15;99827.34;;;35.41;19.98
60061;BME280;45933;51.336;12.612;2022-07-29T11:27:40;99817.03;;;35.45;20.06
60061;BME280;45933;51.336;12.612;2022-07-29T11:30:07;99815.84;;;35.39;19.30
60061;BME280;45933;51.336;12.612;2022-07-29T11:32:41;99811.44;;;35.46;19.56
60061;BME280;45933;51.336;12.612;2022-07-29T11:35:23;99811.34;;;35.62;19.56
60061;BME280;45933;51.336;12.612;2022-07-29T11:43:48;99813.66;;;35.74;19.26
60061;BME280;45933;51.336;12.612;2022-07-29T11:46:14;99813.44;;;35.83;19.02
60061;BME280;45933;51.336;12.612;2022-07-29T11:48:44;99813.75;;;35.88;18.84
60061;BME280;45933;51.336;12.612;2022-07-29T11:51:10;99808.75;;;35.77;18.82
60061;BME280;45933;51.336;12.612;2022-07-29T11:53:39;99808.06;;;36.06;19.23
60061;BME280;45933;51.336;12.612;2022-07-29T11:56:08;99792.94;;;36.12;18.32
60061;BME280;45933;51.336;12.612;2022-07-29T11:58:34;99787.78;;;36.25;19.52
60061;BME280;45933;51.336;12.612;2022-07-29T12:01:00;99792.25;;;36.41;19.02
60061;BME280;45933;51.336;12.612;2022-07-29T12:03:27;99788.81;;;36.47;18.92
60061;BME280;45933;51.336;12.612;2022-07-29T12:05:53;99775.19;;;36.55;18.62
60061;BME280;45933;51.336;12.612;2022-07-29T12:08:21;99772.47;;;36.70;18.08
60061;BME280;45933;51.336;12.612;2022-07-29T12:10:48;99768.75;;;36.71;17.83
60061;BME280;45933;51.336;12.612;2022-07-29T12:13:16;99767.25;;;36.83;18.96
60061;BME280;45933;51.336;12.612;2022-07-29T12:15:50;99767.66;;;36.95;18.46
60061;BME280;45933;51.336;12.612;2022-07-29T12:18:18;99761.59;;;36.93;17.59
60061;BME280;45933;51.336;12.612;2022-07-29T12:20:46;99752.13;;;37.04;17.68
60061;BME280;45933;51.336;12.612;2022-07-29T12:23:12;99753.03;;;37.26;17.91
60061;BME280;45933;51.336;12.612;2022-07-29T12:25:40;99752.84;;;37.27;17.78
60061;BME280;45933;51.336;12.612;2022-07-29T12:28:08;99757.09;;;37.45;17.44
60061;BME280;45933;51.336;12.612;2022-07-29T12:30:45;99757.03;;;37.59;17.22
60061;BME280;45933;51.336;12.612;2022-07-29T12:33:31;99746.88;;;37.68;17.14
60061;BME280;45933;51.336;12.612;2022-07-29T12:36:00;99745.31;;;37.59;17.11
60061;BME280;45933;51.336;12.612;2022-07-29T12:38:27;99735.13;;;37.46;17.20
60061;BME280;45933;51.336;12.612;2022-07-29T12:40:53;99735.97;;;37.32;17.56
60061;BME280;45933;51.336;12.612;2022-07-29T12:43:23;99740.69;;;37.23;17.64
60061;BME280;45933;51.336;12.612;2022-07-29T12:45:51;99741.13;;;37.12;17.95
60061;BME280;45933;51.336;12.612;2022-07-29T12:48:18;99739.38;;;37.04;18.07
60061;BME280;45933;51.336;12.612;2022-07-29T12:51:00;99740.94;;;36.84;17.81
60061;BME280;45933;51.336;12.612;2022-07-29T12:53:26;99743.06;;;36.74;18.31
60061;BME280;45933;51.336;12.612;2022-07-29T12:55:54;99741.66;;;36.63;18.09
60061;BME280;45933;51.336;12.612;2022-07-29T12:58:40;99736.50;;;36.53;17.59
60061;BME280;45933;51.336;12.612;2022-07-29T13:03:43;99737.53;;;36.29;18.46
60061;BME280;45933;51.336;12.612;2022-07-29T13:09:15;99736.94;;;35.96;18.38
60061;BME280;45933;51.336;12.612;2022-07-29T13:11:50;99740.47;;;35.74;18.30
60061;BME280;45933;51.336;12.612;2022-07-29T13:14:33;99735.44;;;35.62;18.78
60061;BME280;45933;51.336;12.612;2022-07-29T13:17:42;99742.13;;;35.52;19.51
60061;BME280;45933;51.336;12.612;2022-07-29T13:19:50;99739.81;;;35.32;18.61
60061;BME280;45933;51.336;12.612;2022-07-29T13:22:18;99738.97;;;35.32;19.01
60061;BME280;45933;51.336;12.612;2022-07-29T13:24:57;99741.34;;;35.27;19.31
60061;BME280;45933;51.336;12.612;2022-07-29T13:27:24;99740.38;;;35.20;19.64
60061;BME280;45933;51.336;12.612;2022-07-29T13:29:50;99740.06;;;35.15;19.87
60061;BME280;45933;51.336;12.612;2022-07-29T13:32:21;99728.41;;;35.06;20.04